Time;durP1;ratioP1;P1;durP2;ratioP2;P2;SDS_P1;SDS_P2;PMS_P1;PMS_P2;Temp;Humidity;BMP_temperature;BMP_pressure;BME280_temperature;BME280_humidity;BME280_pressure;Samples;Min_cycle;Max_cycle;Signal;HPM_P1;HPM_P2
2023/03/05 00:01:21;;;;;;;6.13;1.73;;;8.00;99.90;;;;;;4990664;28;20178;-77
2023/03/05 00:03:47;;;;;;;4.30;1.00;;;7.90;99.90;;;;;;4967843;28;20194;-76
2023/03/05 00:06:13;;;;;;;6.07;1.38;;;7.90;99.90;;;;;;4992585;28;20188;-76
2023/03/05 00:08:39;;;;;;;4.32;1.48;;;7.90;99.90;;;;;;4991099;28;20171;-77
2023/03/05 00:11:10;;;;;;;3.85;1.10;;;7.90;99.90;;;;;;4992389;28;20183;-76
2023/03/05 00:13:36;;;;;;;3.03;1.15;;;7.80;99.90;;;;;;4992347;28;20195;-76
2023/03/05 00:16:08;;;;;;;9.18;1.75;;;7.80;99.90;;;;;;4999232;28;20179;-77
2023/03/05 00:18:34;;;;;;;5.40;1.08;;;7.80;99.90;;;;;;4983371;28;20209;-76
2023/03/05 00:21:00;;;;;;;5.22;1.25;;;7.80;99.90;;;;;;5001988;28;20194;-77
2023/03/05 00:23:27;;;;;;;2.88;1.00;;;7.80;99.90;;;;;;4998690;28;20183;-77
2023/03/05 00:25:53;;;;;;;5.72;1.27;;;7.70;99.90;;;;;;4995865;28;20182;-77
2023/03/05 00:28:18;;;;;;;4.87;1.20;;;7.70;99.90;;;;;;4992644;28;20183;-77
2023/03/05 00:30:44;;;;;;;5.00;0.93;;;7.70;99.90;;;;;;4991329;28;20182;-77
2023/03/05 00:33:11;;;;;;;4.47;0.93;;;7.70;99.90;;;;;;4996713;28;20234;-76
2023/03/05 00:35:41;;;;;;;4.82;1.13;;;7.70;99.90;;;;;;4975645;28;20266;-76
2023/03/05 00:38:08;;;;;;;6.03;1.20;;;7.70;99.90;;;;;;4992727;28;20195;-76
2023/03/05 00:40:39;;;;;;;4.18;1.23;;;7.70;99.90;;;;;;4990686;28;20171;-76
2023/03/05 00:43:05;;;;;;;3.70;1.40;;;7.70;99.90;;;;;;4990668;28;20222;-77
2023/03/05 00:45:31;;;;;;;5.00;1.60;;;7.60;99.90;;;;;;4991963;28;20170;-76
2023/03/05 00:47:57;;;;;;;3.88;1.20;;;7.60;99.90;;;;;;4992097;28;20177;-76
2023/03/05 00:50:23;;;;;;;4.00;1.20;;;7.60;99.90;;;;;;4990767;28;20179;-76
2023/03/05 00:52:49;;;;;;;3.90;0.90;;;7.60;99.90;;;;;;4990242;28;20249;-77
2023/03/05 00:55:14;;;;;;;7.07;1.70;;;7.60;99.90;;;;;;4990632;28;20646;-76
2023/03/05 00:57:40;;;;;;;4.50;1.27;;;7.60;99.90;;;;;;4989504;28;20187;-76
2023/03/05 01:00:07;;;;;;;5.37;2.17;;;7.60;99.90;;;;;;4990368;28;20248;-77
2023/03/05 01:02:33;;;;;;;5.13;1.23;;;7.50;99.90;;;;;;4990099;28;20186;-77
2023/03/05 01:04:58;;;;;;;4.90;1.20;;;7.60;99.90;;;;;;4992293;28;20189;-77
2023/03/05 01:07:24;;;;;;;3.13;1.10;;;7.50;99.90;;;;;;4990915;28;20730;-76
2023/03/05 01:09:50;;;;;;;3.30;1.00;;;7.50;99.90;;;;;;4994481;28;20183;-77
2023/03/05 01:12:15;;;;;;;5.10;1.37;;;7.50;99.90;;;;;;4990566;28;20186;-78
2023/03/05 01:14:41;;;;;;;5.60;1.10;;;7.50;99.90;;;;;;4972843;28;20333;-76
2023/03/05 01:17:07;;;;;;;6.70;1.33;;;7.50;99.90;;;;;;4990370;28;20291;-76
2023/03/05 01:19:33;;;;;;;3.72;0.90;;;7.50;99.90;;;;;;4990993;28;20234;-77
2023/03/05 01:21:58;;;;;;;3.57;1.10;;;7.50;99.90;;;;;;4989838;28;20253;-76
2023/03/05 01:24:24;;;;;;;3.10;0.90;;;7.50;99.90;;;;;;4990216;28;20794;-77
2023/03/05 01:26:50;;;;;;;3.40;1.07;;;7.50;99.90;;;;;;4991233;28;20172;-76
2023/03/05 01:29:16;;;;;;;7.45;1.30;;;7.50;99.90;;;;;;4990493;28;20254;-76
2023/03/05 01:31:42;;;;;;;6.30;1.77;;;7.50;99.90;;;;;;4989472;28;20508;-76
2023/03/05 01:34:08;;;;;;;2.58;0.73;;;7.50;99.90;;;;;;4973860;28;21837;-76
2023/03/05 01:36:33;;;;;;;8.20;1.03;;;7.50;99.90;;;;;;4989862;28;20218;-76
2023/03/05 01:39:00;;;;;;;5.20;1.10;;;7.50;99.90;;;;;;4974175;28;20199;-76
2023/03/05 01:41:27;;;;;;;6.53;1.40;;;7.50;99.90;;;;;;4989371;28;20189;-75
2023/03/05 01:43:53;;;;;;;3.30;0.93;;;7.50;99.90;;;;;;4990067;28;20656;-77
2023/03/05 01:46:29;;;;;;;3.50;1.05;;;7.50;99.90;;;;;;4991045;28;20229;-77
2023/03/05 01:49:10;;;;;;;3.83;1.15;;;7.50;99.90;;;;;;4977201;28;20202;-77
2023/03/05 01:52:08;;;;;;;3.97;0.90;;;7.50;99.90;;;;;;4973600;28;20179;-76
2023/03/05 01:54:48;;;;;;;3.13;0.90;;;7.50;99.90;;;;;;4981277;28;20294;-76
2023/03/05 01:57:23;;;;;;;5.80;1.50;;;7.50;99.90;;;;;;4990018;28;20189;-77
2023/03/05 01:59:53;;;;;;;5.28;1.20;;;7.50;99.90;;;;;;4989559;28;20203;-77
2023/03/05 02:02:21;;;;;;;9.00;1.55;;;7.50;99.90;;;;;;4988759;28;20186;-77
2023/03/05 02:05:16;;;;;;;5.13;1.20;;;7.50;99.90;;;;;;4989737;28;20233;-77
2023/03/05 02:07:44;;;;;;;3.50;1.00;;;7.50;99.90;;;;;;4989962;28;20197;-76
2023/03/05 02:10:22;;;;;;;3.50;1.38;;;7.50;99.90;;;;;;4969664;28;20176;-77
2023/03/05 02:12:50;;;;;;;7.70;1.33;;;7.40;99.90;;;;;;4971430;28;20218;-77
2023/03/05 02:15:17;;;;;;;5.32;1.45;;;7.50;99.90;;;;;;4973217;28;20187;-77
2023/03/05 02:17:43;;;;;;;5.03;1.20;;;7.40;99.90;;;;;;4993623;28;20182;-76
2023/03/05 02:20:18;;;;;;;5.95;1.20;;;7.40;99.90;;;;;;4974677;28;20246;-77
2023/03/05 02:22:44;;;;;;;6.40;1.20;;;7.40;99.90;;;;;;4993324;28;20194;-76
2023/03/05 02:25:22;;;;;;;4.77;1.10;;;7.40;99.90;;;;;;5003187;28;20164;-76
2023/03/05 02:27:56;;;;;;;7.75;1.13;;;7.40;99.90;;;;;;4999255;28;20693;-77
2023/03/05 02:30:22;;;;;;;3.88;1.35;;;7.40;99.90;;;;;;4980068;28;20175;-77
2023/03/05 02:32:48;;;;;;;3.53;1.00;;;7.40;99.90;;;;;;4994823;28;20297;-77
2023/03/05 02:35:14;;;;;;;2.30;1.08;;;7.40;99.90;;;;;;4988623;28;20226;-77
2023/03/05 02:37:41;;;;;;;2.97;1.00;;;7.30;99.90;;;;;;5005878;28;20257;-77
2023/03/05 02:40:09;;;;;;;2.92;1.20;;;7.30;99.90;;;;;;4977738;28;20252;-77
2023/03/05 02:42:35;;;;;;;1.92;1.20;;;7.30;99.90;;;;;;4995004;28;20566;-77
2023/03/05 02:45:02;;;;;;;3.30;0.90;;;7.30;99.90;;;;;;4977107;28;20194;-77
2023/03/05 02:47:27;;;;;;;5.00;0.90;;;7.30;99.90;;;;;;4977350;28;20622;-77
2023/03/05 02:49:54;;;;;;;2.07;0.80;;;7.20;99.90;;;;;;4993176;28;20194;-78
2023/03/05 02:52:22;;;;;;;2.17;1.13;;;7.20;99.90;;;;;;4993367;28;20182;-77
2023/03/05 02:54:49;;;;;;;3.28;0.90;;;7.20;99.90;;;;;;4992657;28;20285;-77
2023/03/05 02:57:15;;;;;;;3.63;1.25;;;7.20;99.90;;;;;;4992823;28;20266;-77
2023/03/05 02:59:41;;;;;;;6.13;1.20;;;7.20;99.90;;;;;;4992356;28;20298;-77
2023/03/05 03:02:06;;;;;;;4.65;0.90;;;7.20;99.90;;;;;;4994566;28;20582;-77
2023/03/05 03:04:32;;;;;;;3.67;1.37;;;7.20;99.90;;;;;;4992556;28;20199;-77
2023/03/05 03:06:58;;;;;;;2.20;1.00;;;7.20;99.90;;;;;;4992203;28;20197;-77
2023/03/05 03:09:25;;;;;;;3.43;1.20;;;7.20;99.90;;;;;;4993927;28;20179;-77
2023/03/05 03:11:51;;;;;;;7.38;0.82;;;7.10;99.90;;;;;;4991364;28;20167;-77
2023/03/05 03:14:17;;;;;;;3.97;0.80;;;7.10;99.90;;;;;;4992471;28;20191;-77
2023/03/05 03:16:42;;;;;;;5.43;1.27;;;7.10;99.90;;;;;;4992234;28;20660;-82
2023/03/05 03:19:08;;;;;;;4.40;1.00;;;7.10;99.90;;;;;;4993604;28;20244;-81
2023/03/05 03:21:34;;;;;;;4.43;1.10;;;7.10;99.90;;;;;;4992842;28;20178;-81
2023/03/05 03:23:59;;;;;;;3.20;0.90;;;7.10;99.90;;;;;;4994117;28;20699;-81
2023/03/05 03:26:25;;;;;;;5.50;1.87;;;7.10;99.90;;;;;;4977054;28;20210;-81
2023/03/05 03:28:51;;;;;;;4.37;1.07;;;7.10;99.90;;;;;;4994176;28;20171;-81
2023/03/05 03:31:16;;;;;;;2.60;0.80;;;7.10;99.90;;;;;;4992251;28;20590;-81
2023/03/05 03:33:44;;;;;;;4.70;0.80;;;7.10;99.90;;;;;;4991962;28;20345;-81
2023/03/05 03:36:10;;;;;;;3.92;0.82;;;7.20;99.90;;;;;;4992418;28;20186;-81
2023/03/05 03:38:36;;;;;;;2.95;0.85;;;7.20;99.90;;;;;;4993043;28;20293;-81
2023/03/05 03:41:05;;;;;;;3.37;1.57;;;7.10;99.90;;;;;;4992592;28;20219;-81
2023/03/05 03:43:30;;;;;;;7.20;1.10;;;7.10;99.90;;;;;;4993728;28;20690;-81
2023/03/05 03:45:56;;;;;;;5.83;0.87;;;7.10;99.90;;;;;;4993055;28;20707;-81
2023/03/05 03:48:22;;;;;;;3.23;0.90;;;7.10;99.90;;;;;;4994281;28;20178;-82
2023/03/05 03:50:47;;;;;;;4.23;1.03;;;7.10;99.90;;;;;;4994112;28;20190;-81
2023/03/05 03:53:13;;;;;;;2.03;0.90;;;7.20;99.90;;;;;;4992316;28;20234;-81
2023/03/05 03:55:41;;;;;;;3.03;0.87;;;7.10;99.90;;;;;;4993120;28;20175;-81
2023/03/05 03:58:07;;;;;;;2.65;1.10;;;7.20;99.90;;;;;;4993123;28;20179;-81
2023/03/05 04:00:33;;;;;;;3.20;0.82;;;7.20;99.90;;;;;;4991204;28;20178;-81
2023/03/05 04:02:59;;;;;;;2.53;0.70;;;7.20;99.90;;;;;;4991317;28;20213;-81
2023/03/05 04:05:24;;;;;;;4.43;1.20;;;7.20;99.90;;;;;;4991533;28;20685;-81
2023/03/05 04:07:50;;;;;;;2.60;1.03;;;7.20;99.90;;;;;;4991044;28;20585;-81
2023/03/05 04:10:16;;;;;;;2.70;0.93;;;7.20;99.90;;;;;;4991132;28;20187;-81
2023/03/05 04:12:42;;;;;;;5.35;1.00;;;7.20;99.90;;;;;;4991846;28;20203;-81
2023/03/05 04:15:09;;;;;;;2.10;0.80;;;7.20;99.90;;;;;;4991484;28;20234;-81
2023/03/05 04:17:35;;;;;;;3.25;0.85;;;7.20;99.90;;;;;;4994689;28;20321;-81
2023/03/05 04:20:01;;;;;;;4.05;1.10;;;7.20;99.90;;;;;;4974120;28;20230;-81
2023/03/05 04:22:27;;;;;;;3.50;1.27;;;7.20;99.90;;;;;;4991273;28;20285;-81
2023/03/05 04:24:52;;;;;;;5.17;1.37;;;7.20;99.90;;;;;;4990957;28;20677;-82
2023/03/05 04:27:18;;;;;;;3.70;1.50;;;7.20;99.90;;;;;;4991316;28;20562;-82
2023/03/05 04:29:44;;;;;;;2.87;1.07;;;7.20;99.90;;;;;;4990610;28;20521;-81
2023/03/05 04:32:09;;;;;;;6.40;1.20;;;7.20;99.90;;;;;;4990539;28;20194;-81
2023/03/05 04:34:36;;;;;;;3.33;1.00;;;7.20;99.90;;;;;;4990608;28;20594;-81
2023/03/05 04:37:02;;;;;;;2.78;0.88;;;7.20;99.90;;;;;;4992398;28;20289;-81
2023/03/05 04:39:28;;;;;;;3.70;1.17;;;7.20;99.90;;;;;;4958668;28;20286;-81
2023/03/05 04:41:54;;;;;;;2.00;0.90;;;7.20;99.90;;;;;;4990103;28;20918;-81
2023/03/05 04:44:22;;;;;;;2.53;0.97;;;7.20;99.90;;;;;;4990989;28;20610;-81
2023/03/05 04:46:48;;;;;;;4.15;0.95;;;7.20;99.90;;;;;;4991967;28;20179;-81
2023/03/05 04:49:14;;;;;;;4.40;0.93;;;7.20;99.90;;;;;;4990371;28;20191;-81
2023/03/05 04:51:40;;;;;;;9.57;1.00;;;7.20;99.90;;;;;;4989740;28;20178;-81
2023/03/05 04:54:07;;;;;;;5.32;0.90;;;7.20;99.90;;;;;;4995836;28;20241;-80
2023/03/05 04:56:33;;;;;;;2.80;1.00;;;7.20;99.90;;;;;;4991639;28;20175;-81
2023/03/05 04:58:58;;;;;;;2.20;1.10;;;7.20;99.90;;;;;;4990486;28;20233;-81
2023/03/05 05:01:24;;;;;;;4.90;2.10;;;7.20;99.90;;;;;;4989247;28;20606;-81
2023/03/05 05:03:50;;;;;;;7.30;1.67;;;7.20;99.90;;;;;;4983513;28;20637;-80
2023/03/05 05:06:16;;;;;;;3.10;0.97;;;7.20;99.90;;;;;;4992048;28;20179;-80
2023/03/05 05:08:42;;;;;;;1.73;0.70;;;7.10;99.90;;;;;;4989587;28;20206;-81
2023/03/05 05:11:13;;;;;;;3.80;1.20;;;7.10;99.90;;;;;;4990145;28;21099;-80
2023/03/05 05:13:39;;;;;;;4.30;0.90;;;7.10;99.90;;;;;;4990920;28;20218;-80
2023/03/05 05:16:08;;;;;;;3.63;1.17;;;7.10;99.90;;;;;;4990095;28;20183;-81
2023/03/05 05:18:34;;;;;;;5.13;1.30;;;7.10;99.90;;;;;;4990106;28;20242;-81
2023/03/05 05:21:00;;;;;;;7.00;0.93;;;7.10;99.90;;;;;;4989500;28;20175;-81
2023/03/05 05:23:26;;;;;;;5.00;1.00;;;7.10;99.90;;;;;;4989838;28;20622;-81
2023/03/05 05:26:00;;;;;;;2.43;1.00;;;7.10;99.90;;;;;;4990865;28;20174;-81
2023/03/05 05:28:27;;;;;;;4.50;1.08;;;7.10;99.90;;;;;;4991648;28;20582;-82
2023/03/05 05:30:53;;;;;;;5.00;0.83;;;7.10;99.90;;;;;;4994267;28;20175;-82
2023/03/05 05:33:20;;;;;;;2.35;0.80;;;7.10;99.90;;;;;;4990633;28;20676;-81
2023/03/05 05:35:46;;;;;;;4.88;1.63;;;7.00;99.90;;;;;;4989795;28;20171;-81
2023/03/05 05:38:12;;;;;;;2.97;0.90;;;7.00;99.90;;;;;;4990349;28;20183;-81
2023/03/05 05:40:38;;;;;;;4.67;1.27;;;7.00;99.90;;;;;;4973761;28;20201;-81
2023/03/05 05:43:04;;;;;;;3.30;1.10;;;7.00;99.90;;;;;;4990181;28;21321;-81
2023/03/05 05:45:30;;;;;;;3.85;0.90;;;7.00;99.90;;;;;;4994937;28;20581;-81
2023/03/05 05:47:56;;;;;;;3.10;1.00;;;7.00;99.90;;;;;;4994972;28;20516;-82
2023/03/05 05:50:21;;;;;;;2.87;1.00;;;7.00;99.90;;;;;;4995256;28;20171;-81
2023/03/05 05:52:47;;;;;;;3.17;1.20;;;7.00;99.90;;;;;;4993582;28;20202;-81
2023/03/05 05:55:13;;;;;;;4.03;1.20;;;7.00;99.90;;;;;;4995433;28;20648;-80
2023/03/05 05:57:38;;;;;;;2.13;1.00;;;7.00;99.90;;;;;;4995119;28;20640;-81
2023/03/05 06:00:08;;;;;;;4.50;1.00;;;7.00;99.90;;;;;;4995215;28;20229;-81
2023/03/05 06:02:41;;;;;;;7.38;1.50;;;7.00;99.90;;;;;;4993691;28;20203;-81
2023/03/05 06:05:10;;;;;;;5.55;1.17;;;7.00;99.90;;;;;;4994174;28;20257;-81
2023/03/05 06:07:36;;;;;;;3.85;1.00;;;7.00;99.90;;;;;;4994472;28;20194;-81
2023/03/05 06:10:02;;;;;;;5.20;2.53;;;7.00;99.90;;;;;;4996638;28;20656;-81
2023/03/05 06:12:28;;;;;;;2.13;1.00;;;7.00;99.90;;;;;;4993596;28;20179;-81
2023/03/05 06:14:54;;;;;;;2.97;0.98;;;7.00;99.90;;;;;;4995626;28;20171;-81
2023/03/05 06:17:20;;;;;;;6.23;1.10;;;7.00;99.90;;;;;;4996743;28;20186;-80
2023/03/05 06:19:45;;;;;;;4.17;1.13;;;7.00;99.90;;;;;;4994151;28;20190;-81
2023/03/05 06:22:11;;;;;;;4.50;1.30;;;7.00;99.90;;;;;;4995197;28;20175;-81
2023/03/05 06:24:37;;;;;;;3.50;1.00;;;7.00;99.90;;;;;;4995049;28;20532;-81
2023/03/05 06:27:04;;;;;;;4.72;1.50;;;7.00;99.90;;;;;;4993426;28;20175;-81
2023/03/05 06:29:30;;;;;;;8.52;2.05;;;7.00;99.90;;;;;;4994908;28;20179;-81
2023/03/05 06:31:56;;;;;;;2.57;1.00;;;7.00;99.90;;;;;;4992846;28;20183;-81
2023/03/05 06:34:22;;;;;;;7.50;1.43;;;7.00;99.90;;;;;;4994970;28;20602;-81
2023/03/05 06:36:48;;;;;;;6.20;1.33;;;7.10;99.90;;;;;;4994291;28;20203;-81
2023/03/05 06:39:14;;;;;;;4.83;1.30;;;7.10;99.90;;;;;;4994449;28;20238;-81
2023/03/05 06:41:40;;;;;;;2.13;1.10;;;7.10;99.90;;;;;;4996005;28;20175;-79
2023/03/05 06:44:06;;;;;;;3.63;1.00;;;7.10;99.90;;;;;;5010838;28;20191;-81
2023/03/05 06:46:36;;;;;;;2.97;1.00;;;7.10;99.90;;;;;;5006340;28;20613;-81
2023/03/05 06:49:02;;;;;;;2.97;1.30;;;7.10;99.90;;;;;;4996650;28;20588;-81
2023/03/05 06:51:32;;;;;;;8.05;1.73;;;7.10;99.90;;;;;;4996332;28;20175;-80
2023/03/05 06:54:06;;;;;;;4.88;1.85;;;7.20;99.90;;;;;;4995386;28;20210;-81
2023/03/05 06:56:35;;;;;;;3.90;1.00;;;7.20;99.90;;;;;;4992935;28;20657;-81
2023/03/05 06:59:01;;;;;;;4.32;1.20;;;7.20;99.90;;;;;;4993123;28;20198;-82
2023/03/05 07:01:27;;;;;;;5.47;2.10;;;7.20;99.90;;;;;;4992794;28;20171;-81
2023/03/05 07:03:57;;;;;;;6.57;1.80;;;7.30;99.90;;;;;;4992592;28;20652;-81
2023/03/05 07:06:23;;;;;;;5.57;1.55;;;7.30;99.90;;;;;;4991141;28;20265;-81
2023/03/05 07:08:49;;;;;;;4.32;1.80;;;7.40;99.90;;;;;;4992909;28;20198;-81
2023/03/05 07:11:18;;;;;;;2.90;1.40;;;7.40;99.90;;;;;;4993980;28;20182;-81
2023/03/05 07:13:46;;;;;;;5.13;1.88;;;7.40;99.90;;;;;;4996484;28;20653;-81
2023/03/05 07:16:21;;;;;;;6.10;2.15;;;7.50;99.90;;;;;;4992278;28;20175;-81
2023/03/05 07:18:47;;;;;;;4.22;1.40;;;7.50;99.90;;;;;;4993926;28;20279;-81
2023/03/05 07:21:17;;;;;;;7.18;1.90;;;7.60;99.90;;;;;;4995652;28;20615;-81
2023/03/05 07:23:43;;;;;;;6.60;2.08;;;7.60;99.90;;;;;;4995869;28;20223;-81
2023/03/05 07:26:10;;;;;;;6.17;1.40;;;7.70;99.90;;;;;;4992357;28;20194;-82
2023/03/05 07:28:36;;;;;;;4.53;1.75;;;7.80;99.90;;;;;;4993509;28;20602;-82
2023/03/05 07:31:06;;;;;;;3.80;1.60;;;7.80;99.90;;;;;;4991987;28;20179;-82
2023/03/05 07:33:34;;;;;;;6.72;1.80;;;7.90;99.90;;;;;;4991688;28;20297;-82
2023/03/05 07:36:00;;;;;;;3.75;1.55;;;8.00;99.90;;;;;;4993604;28;20175;-82
2023/03/05 07:38:27;;;;;;;5.50;1.70;;;8.00;99.90;;;;;;4992944;28;20190;-81
2023/03/05 07:40:52;;;;;;;6.00;2.10;;;8.00;99.90;;;;;;4993181;28;20580;-81
2023/03/05 07:43:18;;;;;;;7.63;1.77;;;8.10;99.90;;;;;;4992885;28;20608;-81
2023/03/05 07:45:45;;;;;;;5.20;1.77;;;8.10;99.90;;;;;;4976049;28;20620;-81
2023/03/05 07:48:16;;;;;;;5.22;1.67;;;8.10;99.90;;;;;;4993024;28;20579;-82
2023/03/05 07:50:43;;;;;;;4.45;1.40;;;8.10;99.90;;;;;;4993082;28;20182;-82
2023/03/05 07:53:09;;;;;;;4.78;1.75;;;8.10;99.90;;;;;;4991772;28;20188;-80
2023/03/05 07:55:40;;;;;;;4.07;1.30;;;8.10;99.90;;;;;;4991304;28;20698;-81
2023/03/05 07:58:06;;;;;;;5.82;1.65;;;8.10;99.90;;;;;;4992736;28;20609;-79
2023/03/05 08:00:33;;;;;;;4.87;1.60;;;8.10;99.90;;;;;;4999025;28;20171;-79
2023/03/05 08:02:59;;;;;;;3.10;1.45;;;8.10;99.90;;;;;;4991291;28;20807;-79
2023/03/05 08:05:25;;;;;;;4.10;1.80;;;8.10;99.90;;;;;;4991344;28;20261;-79
2023/03/05 08:07:51;;;;;;;5.63;2.07;;;8.10;99.90;;;;;;4996599;28;20232;-78
2023/03/05 08:10:17;;;;;;;3.97;1.55;;;8.10;99.90;;;;;;4997391;28;20190;-79
2023/03/05 08:12:42;;;;;;;3.27;1.20;;;8.10;99.90;;;;;;4978185;28;20205;-79
2023/03/05 08:15:09;;;;;;;4.73;1.50;;;8.00;99.90;;;;;;4988397;28;20591;-78
2023/03/05 08:17:34;;;;;;;4.85;1.85;;;8.00;99.90;;;;;;4981343;28;20615;-80
2023/03/05 08:20:04;;;;;;;7.57;1.90;;;8.00;99.90;;;;;;4974254;28;20238;-79
2023/03/05 08:22:33;;;;;;;6.18;2.42;;;8.00;99.90;;;;;;4973759;28;20218;-78
2023/03/05 08:24:59;;;;;;;4.78;1.65;;;8.00;99.90;;;;;;4972816;28;20222;-79
2023/03/05 08:27:25;;;;;;;3.65;1.55;;;8.00;99.90;;;;;;4973798;28;20197;-78
2023/03/05 08:29:51;;;;;;;3.80;1.97;;;8.10;99.90;;;;;;4972157;28;20672;-79
2023/03/05 08:32:16;;;;;;;4.60;1.77;;;8.10;99.90;;;;;;4973150;28;20250;-80
2023/03/05 08:34:42;;;;;;;4.90;1.80;;;8.10;99.90;;;;;;4987904;28;20266;-78
2023/03/05 08:37:08;;;;;;;4.20;1.80;;;8.10;99.90;;;;;;4972548;28;20335;-77
2023/03/05 08:39:35;;;;;;;6.32;1.90;;;8.10;99.90;;;;;;4974101;28;21010;-79
2023/03/05 08:42:01;;;;;;;7.15;1.73;;;8.10;99.90;;;;;;4982343;28;20582;-80
2023/03/05 08:44:26;;;;;;;7.10;2.20;;;8.10;99.90;;;;;;4955311;28;20239;-81
2023/03/05 08:46:52;;;;;;;4.97;2.07;;;8.10;99.90;;;;;;4973132;28;20567;-80
2023/03/05 08:49:18;;;;;;;7.17;2.20;;;8.10;99.90;;;;;;4974539;28;20172;-80
2023/03/05 08:51:43;;;;;;;4.40;1.97;;;8.20;99.90;;;;;;4973705;28;20189;-80
2023/03/05 08:54:09;;;;;;;6.83;2.00;;;8.20;99.90;;;;;;4974225;28;20202;-81
2023/03/05 08:56:35;;;;;;;7.85;1.73;;;8.20;99.90;;;;;;4974824;28;20179;-80
2023/03/05 08:59:03;;;;;;;11.40;3.63;;;8.20;99.90;;;;;;4991369;28;20199;-81
2023/03/05 09:01:30;;;;;;;9.25;3.47;;;8.30;99.90;;;;;;4991436;28;20171;-80
2023/03/05 09:03:57;;;;;;;5.55;2.70;;;8.30;99.90;;;;;;4992310;28;20278;-80
2023/03/05 09:06:23;;;;;;;9.00;2.45;;;8.30;99.90;;;;;;4992274;28;20565;-80
2023/03/05 09:08:49;;;;;;;6.93;2.92;;;8.30;99.90;;;;;;4991312;28;20183;-80
2023/03/05 09:11:15;;;;;;;7.00;3.03;;;8.40;99.90;;;;;;4992404;28;20186;-78
2023/03/05 09:13:41;;;;;;;5.00;2.65;;;8.40;99.90;;;;;;4991963;28;20207;-80
2023/03/05 09:16:11;;;;;;;6.23;2.70;;;8.50;99.90;;;;;;4998047;28;20511;-80
2023/03/05 09:18:39;;;;;;;5.90;2.70;;;8.60;99.90;;;;;;4993343;28;20559;-79
2023/03/05 09:21:13;;;;;;;7.57;2.42;;;8.60;99.90;;;;;;4994415;28;20639;-80
2023/03/05 09:23:40;;;;;;;4.97;2.15;;;8.70;99.90;;;;;;4993180;28;20198;-79
2023/03/05 09:26:07;;;;;;;4.53;2.60;;;8.80;99.90;;;;;;4978254;28;20225;-81
2023/03/05 09:28:33;;;;;;;6.47;2.50;;;8.90;99.90;;;;;;4995590;28;20630;-81
2023/03/05 09:31:03;;;;;;;4.67;2.63;;;9.00;99.90;;;;;;4995287;28;20190;-79
2023/03/05 09:33:31;;;;;;;6.35;1.67;;;9.10;99.90;;;;;;4994125;28;20631;-80
2023/03/05 09:35:57;;;;;;;9.18;2.33;;;9.30;99.90;;;;;;4994250;28;20186;-81
2023/03/05 09:38:22;;;;;;;10.48;2.47;;;9.40;99.90;;;;;;4962201;28;20198;-81
2023/03/05 09:40:57;;;;;;;5.43;2.05;;;9.60;99.90;;;;;;4993923;28;20175;-81
2023/03/05 09:43:28;;;;;;;8.43;4.15;;;9.70;99.90;;;;;;4995396;28;20183;-81
2023/03/05 09:46:24;;;;;;;7.75;4.30;;;9.90;99.90;;;;;;4995069;28;20266;-80
2023/03/05 09:48:57;;;;;;;7.97;3.35;;;10.00;99.90;;;;;;4994684;28;20187;-80
2023/03/05 09:51:36;;;;;;;9.07;2.88;;;10.10;99.90;;;;;;4993661;28;20175;-81
2023/03/05 09:54:09;;;;;;;3.90;2.25;;;10.00;99.90;;;;;;4998636;28;20217;-80
2023/03/05 09:56:39;;;;;;;9.43;3.25;;;10.00;99.90;;;;;;4993401;28;20663;-80
2023/03/05 09:59:27;;;;;;;6.63;3.10;;;10.00;99.90;;;;;;4990899;28;20297;-80
2023/03/05 10:01:59;;;;;;;5.90;2.88;;;9.90;99.90;;;;;;4987047;28;20187;-81
2023/03/05 10:05:01;;;;;;;8.07;3.05;;;9.90;99.90;;;;;;4988844;28;20202;-81
2023/03/05 10:07:31;;;;;;;7.68;3.00;;;9.80;99.90;;;;;;4990984;28;20674;-80
2023/03/05 10:10:04;;;;;;;4.40;2.70;;;9.70;99.90;;;;;;4993646;28;20263;-80
2023/03/05 10:12:37;;;;;;;4.97;2.72;;;9.60;99.90;;;;;;4982790;28;20233;-81
2023/03/05 10:15:27;;;;;;;3.08;2.53;;;9.60;99.90;;;;;;4992046;28;20186;-81
2023/03/05 10:18:08;;;;;;;6.30;3.13;;;9.50;99.90;;;;;;4976050;28;20187;-81
2023/03/05 10:20:55;;;;;;;4.20;2.45;;;9.40;99.90;;;;;;4976611;28;20185;-80
2023/03/05 10:23:32;;;;;;;3.58;2.60;;;9.30;99.90;;;;;;4993630;28;20198;-81
2023/03/05 10:26:23;;;;;;;5.88;4.03;;;9.30;99.90;;;;;;4993034;28;20170;-80
2023/03/05 10:29:14;;;;;;;5.68;3.15;;;9.30;99.90;;;;;;4988594;28;20191;-80
2023/03/05 10:31:59;;;;;;;4.88;3.00;;;9.30;99.90;;;;;;4993655;28;20262;-81
2023/03/05 10:34:35;;;;;;;5.25;3.90;;;9.20;99.90;;;;;;4994707;28;20289;-80
2023/03/05 10:37:31;;;;;;;6.60;3.22;;;9.20;99.90;;;;;;4992899;28;20183;-81
2023/03/05 10:40:08;;;;;;;4.47;3.45;;;9.10;99.90;;;;;;4994482;28;20199;-81
2023/03/05 10:42:53;;;;;;;7.05;4.35;;;9.10;99.90;;;;;;4992715;28;20206;-80
2023/03/05 10:45:29;;;;;;;7.25;4.55;;;9.00;99.90;;;;;;4994924;28;20174;-80
2023/03/05 10:48:23;;;;;;;7.60;5.10;;;8.90;99.90;;;;;;4987384;28;20194;-79
2023/03/05 10:50:56;;;;;;;4.90;4.00;;;8.80;99.90;;;;;;4988332;28;20221;-80
2023/03/05 10:53:26;;;;;;;6.53;4.47;;;8.80;99.90;;;;;;4984344;28;20305;-80
2023/03/05 10:55:55;;;;;;;7.18;5.35;;;8.70;99.90;;;;;;4979444;28;20167;-79
2023/03/05 10:58:22;;;;;;;7.72;5.15;;;8.70;99.90;;;;;;5008662;28;20238;-80
2023/03/05 11:01:03;;;;;;;6.43;5.28;;;8.60;99.90;;;;;;5002541;28;20207;-82
2023/03/05 11:04:04;;;;;;;8.07;5.18;;;8.60;99.90;;;;;;4992477;28;20195;-78
2023/03/05 11:06:33;;;;;;;7.07;5.18;;;8.60;99.90;;;;;;4993652;28;20170;-76
2023/03/05 11:09:20;;;;;;;8.07;5.55;;;8.60;99.90;;;;;;4996103;28;20179;-79
2023/03/05 11:12:13;;;;;;;6.55;5.95;;;8.60;99.90;;;;;;4992323;28;20186;-80
2023/03/05 11:14:42;;;;;;;8.48;7.22;;;8.60;99.90;;;;;;4975734;28;20741;-80
2023/03/05 11:17:30;;;;;;;6.97;5.20;;;8.50;99.90;;;;;;4994400;28;20175;-79
2023/03/05 11:20:17;;;;;;;5.00;4.50;;;8.50;99.90;;;;;;4996984;28;20202;-79
2023/03/05 11:23:00;;;;;;;5.35;3.85;;;8.50;99.90;;;;;;4998876;28;20233;-80
2023/03/05 11:25:27;;;;;;;5.18;3.45;;;8.60;99.90;;;;;;4998419;28;20189;-81
2023/03/05 11:27:57;;;;;;;6.07;4.27;;;8.70;99.90;;;;;;4992080;28;20192;-80
2023/03/05 11:30:32;;;;;;;5.22;4.70;;;8.70;99.90;;;;;;4968979;28;20175;-81
2023/03/05 11:33:08;;;;;;;10.20;6.75;;;8.80;99.90;;;;;;4996094;28;20209;-81
2023/03/05 11:35:41;;;;;;;6.10;4.80;;;9.00;99.90;;;;;;4992334;28;20647;-81
2023/03/05 11:38:19;;;;;;;6.97;4.28;;;9.10;99.90;;;;;;4974231;28;20175;-81
2023/03/05 11:40:46;;;;;;;5.90;4.57;;;9.20;99.90;;;;;;4976007;28;20581;-81
2023/03/05 11:43:18;;;;;;;5.72;4.60;;;9.40;99.90;;;;;;4974801;28;20286;-81
2023/03/05 11:45:46;;;;;;;7.30;4.90;;;9.40;99.90;;;;;;4998228;28;20262;-82
2023/03/05 11:48:23;;;;;;;6.03;4.35;;;9.50;99.90;;;;;;4992782;28;20175;-81
2023/03/05 11:50:55;;;;;;;6.55;4.25;;;9.40;99.90;;;;;;4976106;28;20210;-81
2023/03/05 11:53:35;;;;;;;8.88;4.55;;;9.40;99.90;;;;;;4992434;28;20218;-81
2023/03/05 11:56:12;;;;;;;5.78;4.70;;;9.40;99.90;;;;;;4991464;28;20261;-81
2023/03/05 11:59:01;;;;;;;6.20;4.90;;;9.40;99.90;;;;;;4991453;28;20600;-81
2023/03/05 12:01:31;;;;;;;5.45;4.95;;;9.30;99.90;;;;;;4984933;28;20639;-80
2023/03/05 12:03:58;;;;;;;5.38;4.38;;;9.30;99.90;;;;;;4972062;28;20187;-80
2023/03/05 12:06:44;;;;;;;5.55;4.35;;;9.30;99.90;;;;;;4971780;28;20179;-81
2023/03/05 12:09:41;;;;;;;5.70;2.92;;;9.20;99.90;;;;;;4972308;28;20191;-80
2023/03/05 12:12:31;;;;;;;4.63;3.85;;;9.20;99.90;;;;;;4970879;28;20188;-81
2023/03/05 12:15:33;;;;;;;4.10;3.53;;;9.20;99.90;;;;;;4973392;28;20179;-82
2023/03/05 12:18:19;;;;;;;6.90;3.20;;;9.30;99.90;;;;;;4970433;28;20532;-81
2023/03/05 12:21:01;;;;;;;3.90;2.80;;;9.40;99.90;;;;;;4965242;28;20721;-81
2023/03/05 12:23:28;;;;;;;4.00;3.08;;;9.50;99.90;;;;;;4976147;28;20191;-81
2023/03/05 12:25:58;;;;;;;3.27;2.63;;;9.60;99.90;;;;;;4992806;28;20269;-82
2023/03/05 12:28:32;;;;;;;3.80;3.40;;;9.60;99.90;;;;;;4966107;28;20176;-82
2023/03/05 12:31:03;;;;;;;4.70;3.42;;;9.70;99.90;;;;;;4985031;28;20175;-82
2023/03/05 12:33:31;;;;;;;4.68;2.83;;;9.70;99.90;;;;;;4991019;28;20220;-82
2023/03/05 12:36:15;;;;;;;3.25;2.80;;;9.80;99.90;;;;;;4973824;28;20233;-81
2023/03/05 12:38:46;;;;;;;3.40;3.08;;;9.80;99.90;;;;;;4991977;28;20304;-82
2023/03/05 12:41:21;;;;;;;10.20;6.00;;;9.80;99.90;;;;;;4974321;28;20330;-82
2023/03/05 12:44:07;;;;;;;9.82;6.95;;;9.80;99.90;;;;;;4991079;28;20199;-81
2023/03/05 12:46:34;;;;;;;8.88;5.65;;;9.80;99.90;;;;;;4990789;28;20179;-80
2023/03/05 12:49:25;;;;;;;7.47;4.68;;;9.80;99.90;;;;;;4993010;28;20198;-81
2023/03/05 12:51:53;;;;;;;6.68;5.07;;;9.80;99.90;;;;;;4986775;28;20229;-81
2023/03/05 12:54:39;;;;;;;6.30;4.30;;;9.80;99.90;;;;;;4990102;28;20198;-81
2023/03/05 12:57:18;;;;;;;4.55;3.10;;;9.80;99.90;;;;;;4991501;28;20299;-80
2023/03/05 12:59:52;;;;;;;6.30;3.47;;;9.90;99.90;;;;;;4991001;28;20211;-81
2023/03/05 13:02:30;;;;;;;4.78;3.38;;;9.90;99.90;;;;;;4982268;28;20163;-81
2023/03/05 13:05:03;;;;;;;5.00;3.35;;;10.00;99.90;;;;;;4990546;28;20171;-81
2023/03/05 13:07:28;;;;;;;4.60;2.90;;;10.00;99.90;;;;;;4990683;28;20269;-81
2023/03/05 13:09:58;;;;;;;4.33;3.17;;;10.10;99.90;;;;;;4989581;28;20261;-81
2023/03/05 13:12:27;;;;;;;3.78;3.17;;;10.00;99.90;;;;;;4990674;28;20183;-80